Kismet — ZGDZ9 — position and weather

sailwx.info

Track history (hours):
 
Tides and Currents Weather Stations Pressure Air Temp Water Temp Dewpoint Dewpoint Depression Visibility Wind Speed Wind Dir Waves Ship Positions

Kismet

Last reported at 2018-Jun-24 14:15 UTC. Time now 2018-Jun-24 18:54 UTC.
Position N 43°37' E 007°12'.

Length 95 m; draft 3.8 m.

Type: Pleasure craft. MMSI: 319069900.

Date/timePositionNaut miles runAvg speedWind from/ knotsBaromVisibWave heightAir tempDewpointWater temp
2018-Jun-24 14:15N 43°37' E 007°12'  
2018-Jun-21 13:53N 43°49' E 007°47'0 0.0
2018-Jun-21 13:29N 43°49' E 007°47'  
2018-Jun-19 06:17N 43°49' E 007°47'0 0.0
2018-Jun-17 16:52N 43°49' E 007°47'0 0.0
2018-Jun-17 16:10N 43°49' E 007°47'0 0.0
2018-Jun-17 15:58N 43°49' E 007°47'0 0.0
2018-Jun-17 15:16N 43°49' E 007°47'0 0.0
2018-Jun-17 09:31N 43°49' E 007°47'0 0.0
2018-Jun-17 09:10N 43°49' E 007°47'0 0.0
2018-Jun-16 18:51N 43°49' E 007°47'412.6
2018-Jun-16 18:30N 43°45' E 007°44'714.9
2018-Jun-16 18:00N 43°40' E 007°36'714.5
2018-Jun-16 17:30N 43°35' E 007°29'714.6
2018-Jun-16 17:00N 43°29' E 007°23'714.6
2018-Jun-16 16:30N 43°24' E 007°16'714.5
2018-Jun-16 16:00N 43°18' E 007°09'714.5
2018-Jun-16 15:30N 43°13' E 007°02'713.9
2018-Jun-16 15:01N 43°08' E 006°56'2613.8
2018-Jun-16 13:07N 42°55' E 006°25'213.7
2018-Jun-16 13:00N 42°55' E 006°23'913.6
2018-Jun-16 12:19N 42°55' E 006°11'413.6
2018-Jun-16 11:59N 42°55' E 006°04'4313.8
2018-Jun-16 08:52N 43°11' E 005°09'514.4
2018-Jun-16 08:30N 43°16' E 005°10'713.3
2018-Jun-16 08:00N 43°20' E 005°17'1 2.2
2018-Jun-16 07:29N 43°21' E 005°18'0 0.0
2018-Jun-16 06:23N 43°21' E 005°18'0 0.0
2018-Jun-16 05:53N 43°21' E 005°18'0 0.0
2018-Jun-16 05:20N 43°21' E 005°18'0 0.1
2018-Jun-16 04:53N 43°21' E 005°18'0 0.0
2018-Jun-16 04:23N 43°21' E 005°18'2 4.4
2018-Jun-16 03:53N 43°19' E 005°16'5 8.9
2018-Jun-16 03:22N 43°16' E 005°11'411.3
2018-Jun-16 03:00N 43°12' E 005°11'64 9.4
2018-Jun-15 20:10N 43°02' E 006°37'12 2.5
2018-Jun-15 15:27N 43°13' E 006°40'0 0.0
2018-Jun-15 13:24N 43°13' E 006°40'0 0.0
2018-Jun-15 12:48N 43°13' E 006°40'0 0.0
2018-Jun-15 12:12N 43°13' E 006°40'  
Track history (hours):
 
Tides and Currents Weather Stations Pressure Air Temp Water Temp Dewpoint Dewpoint Depression Visibility Wind Speed Wind Dir Waves Ship Positions

Kismet

Last reported at 2018-Jun-24 14:15 UTC. Time now 2018-Jun-24 18:54 UTC.
Position N 43°37' E 007°12'.

Length 95 m; draft 3.8 m.

Type: Pleasure craft. MMSI: 319069900.

Date/timePositionNaut miles runAvg speedWind from/ knotsBaromVisibWave heightAir tempDewpointWater temp
2018-Jun-24 14:15N 43°37' E 007°12'  
2018-Jun-21 13:53N 43°49' E 007°47'0 0.0
2018-Jun-21 13:29N 43°49' E 007°47'  
2018-Jun-19 06:17N 43°49' E 007°47'0 0.0
2018-Jun-17 16:52N 43°49' E 007°47'0 0.0
2018-Jun-17 16:10N 43°49' E 007°47'0 0.0
2018-Jun-17 15:58N 43°49' E 007°47'0 0.0
2018-Jun-17 15:16N 43°49' E 007°47'0 0.0
2018-Jun-17 09:31N 43°49' E 007°47'0 0.0
2018-Jun-17 09:10N 43°49' E 007°47'0 0.0
2018-Jun-16 18:51N 43°49' E 007°47'412.6
2018-Jun-16 18:30N 43°45' E 007°44'714.9
2018-Jun-16 18:00N 43°40' E 007°36'714.5
2018-Jun-16 17:30N 43°35' E 007°29'714.6
2018-Jun-16 17:00N 43°29' E 007°23'714.6
2018-Jun-16 16:30N 43°24' E 007°16'714.5
2018-Jun-16 16:00N 43°18' E 007°09'714.5
2018-Jun-16 15:30N 43°13' E 007°02'713.9
2018-Jun-16 15:01N 43°08' E 006°56'2613.8
2018-Jun-16 13:07N 42°55' E 006°25'213.7
2018-Jun-16 13:00N 42°55' E 006°23'913.6
2018-Jun-16 12:19N 42°55' E 006°11'413.6
2018-Jun-16 11:59N 42°55' E 006°04'4313.8
2018-Jun-16 08:52N 43°11' E 005°09'514.4
2018-Jun-16 08:30N 43°16' E 005°10'713.3
2018-Jun-16 08:00N 43°20' E 005°17'1 2.2
2018-Jun-16 07:29N 43°21' E 005°18'0 0.0
2018-Jun-16 06:23N 43°21' E 005°18'0 0.0
2018-Jun-16 05:53N 43°21' E 005°18'0 0.0
2018-Jun-16 05:20N 43°21' E 005°18'0 0.1
2018-Jun-16 04:53N 43°21' E 005°18'0 0.0
2018-Jun-16 04:23N 43°21' E 005°18'2 4.4
2018-Jun-16 03:53N 43°19' E 005°16'5 8.9
2018-Jun-16 03:22N 43°16' E 005°11'411.3
2018-Jun-16 03:00N 43°12' E 005°11'64 9.4
2018-Jun-15 20:10N 43°02' E 006°37'12 2.5
2018-Jun-15 15:27N 43°13' E 006°40'0 0.0
2018-Jun-15 13:24N 43°13' E 006°40'0 0.0
2018-Jun-15 12:48N 43°13' E 006°40'0 0.0
2018-Jun-15 12:12N 43°13' E 006°40'  

Dump ship's entire track history